Sardinia, Italy
Current Conditions -  °F | °C
As of 5:20 PM on Saturday 25 Oct 2014 (Local Time) from LIEE Reporting Station
Few Clouds Few Clouds  
Wind Chill: 72°   Ceiling: Unl
Heat Index: 72°   Visibility: 6mi
Dew Point: 63°   Wind: 10mph
Humidity: 73%   Direction: 150°SSE
Pressure: 30.03"   Gusts: NA
Location:  39.25°N, 9.05°E
Report Text: LIEE 251520Z 15009KT 9999 FEW035 22/17 Q1017
Loading
Personal Weather Stations






























Interactive Weather Map
Tropical Storm Tracking
New forecast layout! Learn more

10-Day Weather Forecast

Advertisements
Track Severe Weather on mobile